sensor_id;sensor_type;location;lat;lon;timestamp;pressure;altitude;pressure_sealevel;temperature
14851;BMP180;7517;48.400;11.770;2022-11-04T00:02:04;95402.00;;;15.00
14851;BMP180;7517;48.400;11.770;2022-11-04T00:04:33;95409.00;;;15.00
14851;BMP180;7517;48.400;11.770;2022-11-04T00:07:00;95408.00;;;15.00
14851;BMP180;7517;48.400;11.770;2022-11-04T00:09:47;95414.00;;;15.00
14851;BMP180;7517;48.400;11.770;2022-11-04T00:12:14;95414.00;;;15.10
14851;BMP180;7517;48.400;11.770;2022-11-04T00:14:49;95436.00;;;15.10
14851;BMP180;7517;48.400;11.770;2022-11-04T00:17:17;95433.00;;;15.10
14851;BMP180;7517;48.400;11.770;2022-11-04T00:19:50;95436.00;;;15.10
14851;BMP180;7517;48.400;11.770;2022-11-04T00:22:36;95442.00;;;15.20
14851;BMP180;7517;48.400;11.770;2022-11-04T00:25:21;95450.00;;;15.20
14851;BMP180;7517;48.400;11.770;2022-11-04T00:28:11;95460.00;;;15.20
14851;BMP180;7517;48.400;11.770;2022-11-04T00:30:58;95461.00;;;15.30
14851;BMP180;7517;48.400;11.770;2022-11-04T00:33:48;95463.00;;;15.40
14851;BMP180;7517;48.400;11.770;2022-11-04T00:36:16;95476.00;;;15.40
14851;BMP180;7517;48.400;11.770;2022-11-04T00:38:44;95471.00;;;15.40
14851;BMP180;7517;48.400;11.770;2022-11-04T00:41:11;95474.00;;;15.50
14851;BMP180;7517;48.400;11.770;2022-11-04T00:43:52;95476.00;;;15.50
14851;BMP180;7517;48.400;11.770;2022-11-04T00:46:19;95483.00;;;15.60
14851;BMP180;7517;48.400;11.770;2022-11-04T00:48:46;95476.00;;;15.60
14851;BMP180;7517;48.400;11.770;2022-11-04T00:51:15;95472.00;;;15.60
14851;BMP180;7517;48.400;11.770;2022-11-04T00:53:43;95475.00;;;15.70
14851;BMP180;7517;48.400;11.770;2022-11-04T00:56:10;95485.00;;;15.70
14851;BMP180;7517;48.400;11.770;2022-11-04T00:58:37;95485.00;;;15.80
14851;BMP180;7517;48.400;11.770;2022-11-04T01:01:09;95487.00;;;15.80
14851;BMP180;7517;48.400;11.770;2022-11-04T01:03:37;95494.00;;;15.80
14851;BMP180;7517;48.400;11.770;2022-11-04T01:06:05;95509.00;;;15.80
14851;BMP180;7517;48.400;11.770;2022-11-04T01:08:33;95514.00;;;15.90
14851;BMP180;7517;48.400;11.770;2022-11-04T01:11:01;95514.00;;;15.90
14851;BMP180;7517;48.400;11.770;2022-11-04T01:13:29;95520.00;;;15.90
14851;BMP180;7517;48.400;11.770;2022-11-04T01:15:57;95526.00;;;15.90
14851;BMP180;7517;48.400;11.770;2022-11-04T01:18:26;95526.00;;;15.80
14851;BMP180;7517;48.400;11.770;2022-11-04T01:20:53;95531.00;;;15.80
14851;BMP180;7517;48.400;11.770;2022-11-04T01:23:21;95541.00;;;15.80
14851;BMP180;7517;48.400;11.770;2022-11-04T01:25:49;95530.00;;;15.80
14851;BMP180;7517;48.400;11.770;2022-11-04T01:28:16;95535.00;;;15.80
14851;BMP180;7517;48.400;11.770;2022-11-04T01:30:44;95548.00;;;15.80
14851;BMP180;7517;48.400;11.770;2022-11-04T01:33:11;95546.00;;;15.80
14851;BMP180;7517;48.400;11.770;2022-11-04T01:35:38;95543.00;;;15.80
14851;BMP180;7517;48.400;11.770;2022-11-04T01:38:05;95545.00;;;15.70
14851;BMP180;7517;48.400;11.770;2022-11-04T01:40:35;95555.00;;;15.70
14851;BMP180;7517;48.400;11.770;2022-11-04T01:43:12;95553.00;;;15.70
14851;BMP180;7517;48.400;11.770;2022-11-04T01:45:41;95548.00;;;15.70
14851;BMP180;7517;48.400;11.770;2022-11-04T01:48:16;95546.00;;;15.70
14851;BMP180;7517;48.400;11.770;2022-11-04T01:50:46;95546.00;;;15.70
14851;BMP180;7517;48.400;11.770;2022-11-04T01:53:20;95558.00;;;15.60
14851;BMP180;7517;48.400;11.770;2022-11-04T01:55:53;95552.00;;;15.70
14851;BMP180;7517;48.400;11.770;2022-11-04T01:58:27;95552.00;;;15.60
14851;BMP180;7517;48.400;11.770;2022-11-04T02:00:55;95547.00;;;15.60
14851;BMP180;7517;48.400;11.770;2022-11-04T02:03:27;95546.00;;;15.60
14851;BMP180;7517;48.400;11.770;2022-11-04T02:05:57;95531.00;;;15.60
14851;BMP180;7517;48.400;11.770;2022-11-04T02:08:25;95524.00;;;15.50
14851;BMP180;7517;48.400;11.770;2022-11-04T02:10:58;95526.00;;;15.50
14851;BMP180;7517;48.400;11.770;2022-11-04T02:13:29;95528.00;;;15.50
14851;BMP180;7517;48.400;11.770;2022-11-04T02:16:05;95523.00;;;15.50
14851;BMP180;7517;48.400;11.770;2022-11-04T02:18:52;95520.00;;;15.50
14851;BMP180;7517;48.400;11.770;2022-11-04T02:22:02;95511.00;;;15.40
14851;BMP180;7517;48.400;11.770;2022-11-04T02:25:02;95515.00;;;15.40
14851;BMP180;7517;48.400;11.770;2022-11-04T02:27:51;95514.00;;;15.40
14851;BMP180;7517;48.400;11.770;2022-11-04T02:30:30;95518.00;;;15.40
14851;BMP180;7517;48.400;11.770;2022-11-04T02:33:18;95523.00;;;15.40
14851;BMP180;7517;48.400;11.770;2022-11-04T02:35:59;95529.00;;;15.40
14851;BMP180;7517;48.400;11.770;2022-11-04T02:38:41;95532.00;;;15.40
14851;BMP180;7517;48.400;11.770;2022-11-04T02:41:18;95532.00;;;15.40
14851;BMP180;7517;48.400;11.770;2022-11-04T02:43:59;95534.00;;;15.40
14851;BMP180;7517;48.400;11.770;2022-11-04T02:46:34;95534.00;;;15.40
14851;BMP180;7517;48.400;11.770;2022-11-04T02:49:11;95532.00;;;15.40
14851;BMP180;7517;48.400;11.770;2022-11-04T02:51:43;95537.00;;;15.30
14851;BMP180;7517;48.400;11.770;2022-11-04T02:54:18;95535.00;;;15.30
14851;BMP180;7517;48.400;11.770;2022-11-04T02:56:50;95534.00;;;15.30
14851;BMP180;7517;48.400;11.770;2022-11-04T02:59:24;95529.00;;;15.30
14851;BMP180;7517;48.400;11.770;2022-11-04T03:01:58;95537.00;;;15.30
14851;BMP180;7517;48.400;11.770;2022-11-04T03:04:30;95532.00;;;15.30
14851;BMP180;7517;48.400;11.770;2022-11-04T03:07:01;95537.00;;;15.30
14851;BMP180;7517;48.400;11.770;2022-11-04T03:09:32;95534.00;;;15.30
14851;BMP180;7517;48.400;11.770;2022-11-04T03:12:05;95530.00;;;15.30
14851;BMP180;7517;48.400;11.770;2022-11-04T03:14:40;95540.00;;;15.30
14851;BMP180;7517;48.400;11.770;2022-11-04T03:17:19;95536.00;;;15.30
14851;BMP180;7517;48.400;11.770;2022-11-04T03:19:53;95543.00;;;15.30
14851;BMP180;7517;48.400;11.770;2022-11-04T03:22:26;95540.00;;;15.20
14851;BMP180;7517;48.400;11.770;2022-11-04T03:24:54;95535.00;;;15.20
14851;BMP180;7517;48.400;11.770;2022-11-04T03:27:34;95532.00;;;15.20
14851;BMP180;7517;48.400;11.770;2022-11-04T03:30:07;95530.00;;;15.20
14851;BMP180;7517;48.400;11.770;2022-11-04T03:32:44;95529.00;;;15.20
14851;BMP180;7517;48.400;11.770;2022-11-04T03:35:14;95535.00;;;15.20
14851;BMP180;7517;48.400;11.770;2022-11-04T03:37:43;95534.00;;;15.20
14851;BMP180;7517;48.400;11.770;2022-11-04T03:40:13;95537.00;;;15.20
14851;BMP180;7517;48.400;11.770;2022-11-04T03:42:46;95528.00;;;15.20
14851;BMP180;7517;48.400;11.770;2022-11-04T03:45:15;95544.00;;;15.20
14851;BMP180;7517;48.400;11.770;2022-11-04T03:47:43;95551.00;;;15.20
14851;BMP180;7517;48.400;11.770;2022-11-04T03:50:22;95551.00;;;15.20
14851;BMP180;7517;48.400;11.770;2022-11-04T03:52:52;95548.00;;;15.20
14851;BMP180;7517;48.400;11.770;2022-11-04T03:55:20;95539.00;;;15.20
14851;BMP180;7517;48.400;11.770;2022-11-04T03:57:54;95536.00;;;15.20
14851;BMP180;7517;48.400;11.770;2022-11-04T04:00:24;95541.00;;;15.20
14851;BMP180;7517;48.400;11.770;2022-11-04T04:03:10;95539.00;;;15.20
14851;BMP180;7517;48.400;11.770;2022-11-04T04:05:47;95541.00;;;15.20
14851;BMP180;7517;48.400;11.770;2022-11-04T04:08:32;95546.00;;;15.20
14851;BMP180;7517;48.400;11.770;2022-11-04T04:11:08;95544.00;;;15.20
14851;BMP180;7517;48.400;11.770;2022-11-04T04:13:48;95537.00;;;15.20
14851;BMP180;7517;48.400;11.770;2022-11-04T04:16:26;95542.00;;;15.20
14851;BMP180;7517;48.400;11.770;2022-11-04T04:19:00;95535.00;;;15.20
14851;BMP180;7517;48.400;11.770;2022-11-04T04:21:34;95527.00;;;15.20
14851;BMP180;7517;48.400;11.770;2022-11-04T04:24:07;95509.00;;;15.20
14851;BMP180;7517;48.400;11.770;2022-11-04T04:26:54;95503.00;;;15.20
14851;BMP180;7517;48.400;11.770;2022-11-04T04:29:42;95509.00;;;15.20
14851;BMP180;7517;48.400;11.770;2022-11-04T04:32:11;95505.00;;;15.20
14851;BMP180;7517;48.400;11.770;2022-11-04T04:34:40;95514.00;;;15.20
14851;BMP180;7517;48.400;11.770;2022-11-04T04:37:17;95516.00;;;15.10
14851;BMP180;7517;48.400;11.770;2022-11-04T04:39:49;95514.00;;;15.10
14851;BMP180;7517;48.400;11.770;2022-11-04T04:42:35;95509.00;;;15.10
14851;BMP180;7517;48.400;11.770;2022-11-04T04:45:22;95517.00;;;15.10
14851;BMP180;7517;48.400;11.770;2022-11-04T04:47:51;95513.00;;;15.10
14851;BMP180;7517;48.400;11.770;2022-11-04T04:50:21;95505.00;;;15.10
14851;BMP180;7517;48.400;11.770;2022-11-04T04:52:50;95491.00;;;15.10
14851;BMP180;7517;48.400;11.770;2022-11-04T04:55:18;95480.00;;;15.10
14851;BMP180;7517;48.400;11.770;2022-11-04T04:57:46;95483.00;;;15.10
14851;BMP180;7517;48.400;11.770;2022-11-04T05:00:16;95487.00;;;15.10
14851;BMP180;7517;48.400;11.770;2022-11-04T05:02:44;95501.00;;;15.10
14851;BMP180;7517;48.400;11.770;2022-11-04T05:05:12;95507.00;;;15.10
14851;BMP180;7517;48.400;11.770;2022-11-04T05:07:41;95526.00;;;15.10
14851;BMP180;7517;48.400;11.770;2022-11-04T05:10:12;95537.00;;;15.10
14851;BMP180;7517;48.400;11.770;2022-11-04T05:12:40;95541.00;;;15.10
14851;BMP180;7517;48.400;11.770;2022-11-04T05:15:25;95537.00;;;15.00
14851;BMP180;7517;48.400;11.770;2022-11-04T05:17:59;95537.00;;;15.00
14851;BMP180;7517;48.400;11.770;2022-11-04T05:20:27;95528.00;;;15.00
14851;BMP180;7517;48.400;11.770;2022-11-04T05:22:56;95540.00;;;15.00
14851;BMP180;7517;48.400;11.770;2022-11-04T05:25:23;95535.00;;;15.00
14851;BMP180;7517;48.400;11.770;2022-11-04T05:27:50;95540.00;;;15.00
14851;BMP180;7517;48.400;11.770;2022-11-04T05:30:18;95555.00;;;15.00
14851;BMP180;7517;48.400;11.770;2022-11-04T05:32:45;95558.00;;;15.00
14851;BMP180;7517;48.400;11.770;2022-11-04T05:35:12;95559.00;;;15.00
14851;BMP180;7517;48.400;11.770;2022-11-04T05:37:39;95538.00;;;15.00
14851;BMP180;7517;48.400;11.770;2022-11-04T05:40:10;95536.00;;;15.00
14851;BMP180;7517;48.400;11.770;2022-11-04T05:42:37;95541.00;;;15.00
14851;BMP180;7517;48.400;11.770;2022-11-04T05:45:05;95538.00;;;14.90
14851;BMP180;7517;48.400;11.770;2022-11-04T05:47:32;95523.00;;;14.90
14851;BMP180;7517;48.400;11.770;2022-11-04T05:50:00;95528.00;;;14.90
14851;BMP180;7517;48.400;11.770;2022-11-04T05:52:27;95540.00;;;14.90
14851;BMP180;7517;48.400;11.770;2022-11-04T05:54:54;95541.00;;;14.80
14851;BMP180;7517;48.400;11.770;2022-11-04T05:57:23;95556.00;;;14.80
14851;BMP180;7517;48.400;11.770;2022-11-04T05:59:50;95563.00;;;14.80
14851;BMP180;7517;48.400;11.770;2022-11-04T06:02:17;95573.00;;;14.80
14851;BMP180;7517;48.400;11.770;2022-11-04T06:04:44;95564.00;;;14.80
14851;BMP180;7517;48.400;11.770;2022-11-04T06:07:11;95563.00;;;14.80
14851;BMP180;7517;48.400;11.770;2022-11-04T06:09:38;95564.00;;;14.80
14851;BMP180;7517;48.400;11.770;2022-11-04T06:12:08;95572.00;;;14.80
14851;BMP180;7517;48.400;11.770;2022-11-04T06:14:37;95585.00;;;14.70
14851;BMP180;7517;48.400;11.770;2022-11-04T06:17:04;95577.00;;;14.70
14851;BMP180;7517;48.400;11.770;2022-11-04T06:19:31;95589.00;;;14.70
14851;BMP180;7517;48.400;11.770;2022-11-04T06:21:59;95601.00;;;14.60
14851;BMP180;7517;48.400;11.770;2022-11-04T06:24:26;95589.00;;;14.60
14851;BMP180;7517;48.400;11.770;2022-11-04T06:26:53;95599.00;;;14.50
14851;BMP180;7517;48.400;11.770;2022-11-04T06:29:21;95605.00;;;14.40
14851;BMP180;7517;48.400;11.770;2022-11-04T06:31:49;95603.00;;;14.40
14851;BMP180;7517;48.400;11.770;2022-11-04T06:34:16;95588.00;;;14.30
14851;BMP180;7517;48.400;11.770;2022-11-04T06:36:44;95599.00;;;14.30
14851;BMP180;7517;48.400;11.770;2022-11-04T06:39:11;95596.00;;;14.30
14851;BMP180;7517;48.400;11.770;2022-11-04T06:41:38;95590.00;;;14.20
14851;BMP180;7517;48.400;11.770;2022-11-04T06:44:06;95594.00;;;14.20
14851;BMP180;7517;48.400;11.770;2022-11-04T06:46:37;95585.00;;;14.10
14851;BMP180;7517;48.400;11.770;2022-11-04T06:49:10;95571.00;;;14.10
14851;BMP180;7517;48.400;11.770;2022-11-04T06:51:38;95566.00;;;14.10
14851;BMP180;7517;48.400;11.770;2022-11-04T06:54:06;95573.00;;;14.10
14851;BMP180;7517;48.400;11.770;2022-11-04T06:56:33;95577.00;;;14.10
14851;BMP180;7517;48.400;11.770;2022-11-04T06:59:01;95566.00;;;14.10
14851;BMP180;7517;48.400;11.770;2022-11-04T07:01:33;95561.00;;;14.10
14851;BMP180;7517;48.400;11.770;2022-11-04T07:04:01;95559.00;;;14.10
14851;BMP180;7517;48.400;11.770;2022-11-04T07:06:31;95564.00;;;14.10
14851;BMP180;7517;48.400;11.770;2022-11-04T07:09:01;95556.00;;;14.10
14851;BMP180;7517;48.400;11.770;2022-11-04T07:11:31;95541.00;;;14.10
14851;BMP180;7517;48.400;11.770;2022-11-04T07:13:58;95543.00;;;14.10
14851;BMP180;7517;48.400;11.770;2022-11-04T07:16:26;95542.00;;;14.10
14851;BMP180;7517;48.400;11.770;2022-11-04T07:18:54;95548.00;;;14.10
14851;BMP180;7517;48.400;11.770;2022-11-04T07:21:21;95550.00;;;14.10
14851;BMP180;7517;48.400;11.770;2022-11-04T07:23:51;95552.00;;;14.10
14851;BMP180;7517;48.400;11.770;2022-11-04T07:26:18;95565.00;;;14.10
14851;BMP180;7517;48.400;11.770;2022-11-04T07:28:45;95565.00;;;14.10
14851;BMP180;7517;48.400;11.770;2022-11-04T07:31:13;95577.00;;;14.00
14851;BMP180;7517;48.400;11.770;2022-11-04T07:33:41;95580.00;;;14.10
14851;BMP180;7517;48.400;11.770;2022-11-04T07:36:11;95579.00;;;14.00
14851;BMP180;7517;48.400;11.770;2022-11-04T07:38:39;95587.00;;;14.00
14851;BMP180;7517;48.400;11.770;2022-11-04T07:41:07;95583.00;;;14.00
14851;BMP180;7517;48.400;11.770;2022-11-04T07:43:34;95591.00;;;14.00
14851;BMP180;7517;48.400;11.770;2022-11-04T07:46:03;95605.00;;;14.00
14851;BMP180;7517;48.400;11.770;2022-11-04T07:48:31;95622.00;;;14.00
14851;BMP180;7517;48.400;11.770;2022-11-04T07:50:59;95629.00;;;14.00
14851;BMP180;7517;48.400;11.770;2022-11-04T07:53:29;95633.00;;;14.00
14851;BMP180;7517;48.400;11.770;2022-11-04T07:55:56;95633.00;;;14.00
14851;BMP180;7517;48.400;11.770;2022-11-04T07:58:25;95629.00;;;14.00
14851;BMP180;7517;48.400;11.770;2022-11-04T08:00:58;95632.00;;;14.00
14851;BMP180;7517;48.400;11.770;2022-11-04T08:03:25;95637.00;;;14.00
14851;BMP180;7517;48.400;11.770;2022-11-04T08:05:56;95630.00;;;14.00
14851;BMP180;7517;48.400;11.770;2022-11-04T08:08:24;95629.00;;;14.00
14851;BMP180;7517;48.400;11.770;2022-11-04T08:10:53;95640.00;;;14.00
14851;BMP180;7517;48.400;11.770;2022-11-04T08:13:21;95638.00;;;14.00
14851;BMP180;7517;48.400;11.770;2022-11-04T08:15:49;95629.00;;;14.00
14851;BMP180;7517;48.400;11.770;2022-11-04T08:18:17;95622.00;;;14.00
14851;BMP180;7517;48.400;11.770;2022-11-04T08:20:47;95625.00;;;14.00
14851;BMP180;7517;48.400;11.770;2022-11-04T08:23:15;95610.00;;;14.00
14851;BMP180;7517;48.400;11.770;2022-11-04T08:25:43;95604.00;;;14.00
14851;BMP180;7517;48.400;11.770;2022-11-04T08:28:11;95609.00;;;14.00
14851;BMP180;7517;48.400;11.770;2022-11-04T08:30:52;95602.00;;;14.00
14851;BMP180;7517;48.400;11.770;2022-11-04T08:33:19;95593.00;;;14.10
14851;BMP180;7517;48.400;11.770;2022-11-04T08:35:47;95600.00;;;14.10
14851;BMP180;7517;48.400;11.770;2022-11-04T08:38:14;95587.00;;;14.10
14851;BMP180;7517;48.400;11.770;2022-11-04T08:40:42;95566.00;;;14.10
14851;BMP180;7517;48.400;11.770;2022-11-04T08:43:09;95571.00;;;14.10
14851;BMP180;7517;48.400;11.770;2022-11-04T08:45:39;95581.00;;;14.10
14851;BMP180;7517;48.400;11.770;2022-11-04T08:48:08;95589.00;;;14.10
14851;BMP180;7517;48.400;11.770;2022-11-04T08:50:37;95587.00;;;14.10
14851;BMP180;7517;48.400;11.770;2022-11-04T08:53:07;95580.00;;;14.10
14851;BMP180;7517;48.400;11.770;2022-11-04T08:55:37;95577.00;;;14.10
14851;BMP180;7517;48.400;11.770;2022-11-04T08:58:05;95585.00;;;14.10
14851;BMP180;7517;48.400;11.770;2022-11-04T09:00:33;95583.00;;;14.10
14851;BMP180;7517;48.400;11.770;2022-11-04T09:03:01;95578.00;;;14.10
14851;BMP180;7517;48.400;11.770;2022-11-04T09:05:30;95572.00;;;14.10
14851;BMP180;7517;48.400;11.770;2022-11-04T09:07:59;95568.00;;;14.10
14851;BMP180;7517;48.400;11.770;2022-11-04T09:10:26;95567.00;;;14.10
14851;BMP180;7517;48.400;11.770;2022-11-04T09:12:54;95569.00;;;14.10
14851;BMP180;7517;48.400;11.770;2022-11-04T09:15:21;95566.00;;;14.10
14851;BMP180;7517;48.400;11.770;2022-11-04T09:17:48;95561.00;;;14.10
14851;BMP180;7517;48.400;11.770;2022-11-04T09:20:15;95556.00;;;14.00
14851;BMP180;7517;48.400;11.770;2022-11-04T09:22:44;95552.00;;;14.00
14851;BMP180;7517;48.400;11.770;2022-11-04T09:25:15;95547.00;;;14.10
14851;BMP180;7517;48.400;11.770;2022-11-04T09:27:42;95546.00;;;14.10
14851;BMP180;7517;48.400;11.770;2022-11-04T09:30:11;95546.00;;;14.10
14851;BMP180;7517;48.400;11.770;2022-11-04T09:32:38;95544.00;;;14.10
14851;BMP180;7517;48.400;11.770;2022-11-04T09:35:06;95545.00;;;14.10
14851;BMP180;7517;48.400;11.770;2022-11-04T09:37:33;95543.00;;;14.10
14851;BMP180;7517;48.400;11.770;2022-11-04T09:40:03;95543.00;;;14.10
14851;BMP180;7517;48.400;11.770;2022-11-04T09:42:54;95536.00;;;14.10
14851;BMP180;7517;48.400;11.770;2022-11-04T09:45:27;95532.00;;;14.10
14851;BMP180;7517;48.400;11.770;2022-11-04T09:48:00;95538.00;;;14.10
14851;BMP180;7517;48.400;11.770;2022-11-04T09:50:42;95547.00;;;14.10
14851;BMP180;7517;48.400;11.770;2022-11-04T09:53:16;95549.00;;;14.10
14851;BMP180;7517;48.400;11.770;2022-11-04T09:55:53;95552.00;;;14.20
14851;BMP180;7517;48.400;11.770;2022-11-04T09:58:21;95553.00;;;14.20
14851;BMP180;7517;48.400;11.770;2022-11-04T10:00:57;95555.00;;;14.20
14851;BMP180;7517;48.400;11.770;2022-11-04T10:03:50;95545.00;;;14.20
14851;BMP180;7517;48.400;11.770;2022-11-04T10:06:34;95543.00;;;14.20
14851;BMP180;7517;48.400;11.770;2022-11-04T10:09:17;95557.00;;;14.20
14851;BMP180;7517;48.400;11.770;2022-11-04T10:12:05;95551.00;;;14.30
14851;BMP180;7517;48.400;11.770;2022-11-04T10:14:58;95554.00;;;14.30
14851;BMP180;7517;48.400;11.770;2022-11-04T10:18:02;95550.00;;;14.40
14851;BMP180;7517;48.400;11.770;2022-11-04T10:20:47;95544.00;;;14.50
14851;BMP180;7517;48.400;11.770;2022-11-04T10:23:21;95543.00;;;14.50
14851;BMP180;7517;48.400;11.770;2022-11-04T10:25:58;95549.00;;;14.60
14851;BMP180;7517;48.400;11.770;2022-11-04T10:28:34;95543.00;;;14.70
14851;BMP180;7517;48.400;11.770;2022-11-04T10:31:04;95552.00;;;14.70
14851;BMP180;7517;48.400;11.770;2022-11-04T10:33:36;95542.00;;;14.80
14851;BMP180;7517;48.400;11.770;2022-11-04T10:36:07;95542.00;;;14.80
14851;BMP180;7517;48.400;11.770;2022-11-04T10:38:40;95534.00;;;14.80
14851;BMP180;7517;48.400;11.770;2022-11-04T10:41:27;95541.00;;;14.80
14851;BMP180;7517;48.400;11.770;2022-11-04T10:44:04;95540.00;;;14.80
14851;BMP180;7517;48.400;11.770;2022-11-04T10:46:46;95524.00;;;14.90
14851;BMP180;7517;48.400;11.770;2022-11-04T10:52:33;95506.00;;;14.90
14851;BMP180;7517;48.400;11.770;2022-11-04T10:55:04;95505.00;;;14.90
14851;BMP180;7517;48.400;11.770;2022-11-04T10:57:38;95498.00;;;14.90
14851;BMP180;7517;48.400;11.770;2022-11-04T11:00:08;95500.00;;;15.00
14851;BMP180;7517;48.400;11.770;2022-11-04T11:02:46;95505.00;;;15.00
14851;BMP180;7517;48.400;11.770;2022-11-04T11:05:23;95506.00;;;15.00
14851;BMP180;7517;48.400;11.770;2022-11-04T11:07:53;95500.00;;;15.00
14851;BMP180;7517;48.400;11.770;2022-11-04T11:10:24;95503.00;;;15.00
14851;BMP180;7517;48.400;11.770;2022-11-04T11:12:55;95507.00;;;15.00
14851;BMP180;7517;48.400;11.770;2022-11-04T11:15:32;95504.00;;;15.00
14851;BMP180;7517;48.400;11.770;2022-11-04T11:18:13;95493.00;;;15.00
14851;BMP180;7517;48.400;11.770;2022-11-04T11:20:42;95496.00;;;15.00
14851;BMP180;7517;48.400;11.770;2022-11-04T11:23:34;95508.00;;;15.00
14851;BMP180;7517;48.400;11.770;2022-11-04T11:26:03;95505.00;;;15.00
14851;BMP180;7517;48.400;11.770;2022-11-04T11:28:32;95504.00;;;15.00
14851;BMP180;7517;48.400;11.770;2022-11-04T11:31:11;95515.00;;;15.00
14851;BMP180;7517;48.400;11.770;2022-11-04T11:33:51;95524.00;;;15.00
14851;BMP180;7517;48.400;11.770;2022-11-04T11:36:23;95525.00;;;15.00
14851;BMP180;7517;48.400;11.770;2022-11-04T11:39:02;95532.00;;;15.00
14851;BMP180;7517;48.400;11.770;2022-11-04T11:41:48;95527.00;;;15.00
14851;BMP180;7517;48.400;11.770;2022-11-04T11:44:26;95523.00;;;15.00
14851;BMP180;7517;48.400;11.770;2022-11-04T11:47:01;95518.00;;;15.00
14851;BMP180;7517;48.400;11.770;2022-11-04T11:49:32;95520.00;;;15.00
14851;BMP180;7517;48.400;11.770;2022-11-04T11:52:31;95529.00;;;14.90
14851;BMP180;7517;48.400;11.770;2022-11-04T11:55:05;95537.00;;;14.90
14851;BMP180;7517;48.400;11.770;2022-11-04T11:57:49;95539.00;;;14.90
14851;BMP180;7517;48.400;11.770;2022-11-04T12:00:18;95526.00;;;14.90
14851;BMP180;7517;48.400;11.770;2022-11-04T12:02:59;95527.00;;;14.90
14851;BMP180;7517;48.400;11.770;2022-11-04T12:05:35;95515.00;;;14.90
14851;BMP180;7517;48.400;11.770;2022-11-04T12:08:34;95517.00;;;14.90
14851;BMP180;7517;48.400;11.770;2022-11-04T12:11:15;95518.00;;;14.90
14851;BMP180;7517;48.400;11.770;2022-11-04T12:13:52;95517.00;;;14.90
14851;BMP180;7517;48.400;11.770;2022-11-04T12:16:33;95522.00;;;15.00
14851;BMP180;7517;48.400;11.770;2022-11-04T12:22:17;95518.00;;;15.00
14851;BMP180;7517;48.400;11.770;2022-11-04T12:24:54;95522.00;;;15.00
14851;BMP180;7517;48.400;11.770;2022-11-04T12:27:35;95523.00;;;15.00
14851;BMP180;7517;48.400;11.770;2022-11-04T12:30:09;95519.00;;;15.00
14851;BMP180;7517;48.400;11.770;2022-11-04T12:32:59;95527.00;;;15.10
14851;BMP180;7517;48.400;11.770;2022-11-04T12:35:50;95516.00;;;15.10
14851;BMP180;7517;48.400;11.770;2022-11-04T12:38:39;95535.00;;;15.10
14851;BMP180;7517;48.400;11.770;2022-11-04T12:41:21;95533.00;;;15.10
14851;BMP180;7517;48.400;11.770;2022-11-04T12:44:03;95529.00;;;15.10
14851;BMP180;7517;48.400;11.770;2022-11-04T12:46:41;95527.00;;;15.10
14851;BMP180;7517;48.400;11.770;2022-11-04T12:49:53;95519.00;;;15.10
14851;BMP180;7517;48.400;11.770;2022-11-04T12:52:46;95519.00;;;15.10
14851;BMP180;7517;48.400;11.770;2022-11-04T12:55:39;95525.00;;;15.10
14851;BMP180;7517;48.400;11.770;2022-11-04T12:58:30;95543.00;;;15.10
14851;BMP180;7517;48.400;11.770;2022-11-04T13:01:05;95558.00;;;15.10
14851;BMP180;7517;48.400;11.770;2022-11-04T13:03:45;95568.00;;;15.10
14851;BMP180;7517;48.400;11.770;2022-11-04T13:06:19;95570.00;;;15.10
14851;BMP180;7517;48.400;11.770;2022-11-04T13:08:53;95578.00;;;15.10
14851;BMP180;7517;48.400;11.770;2022-11-04T13:11:28;95582.00;;;15.10
14851;BMP180;7517;48.400;11.770;2022-11-04T13:14:03;95588.00;;;15.10
14851;BMP180;7517;48.400;11.770;2022-11-04T13:16:38;95586.00;;;15.10
14851;BMP180;7517;48.400;11.770;2022-11-04T13:19:23;95590.00;;;15.10
14851;BMP180;7517;48.400;11.770;2022-11-04T13:21:52;95581.00;;;15.10
14851;BMP180;7517;48.400;11.770;2022-11-04T13:24:25;95586.00;;;15.10
14851;BMP180;7517;48.400;11.770;2022-11-04T13:27:02;95574.00;;;15.10
14851;BMP180;7517;48.400;11.770;2022-11-04T13:29:31;95580.00;;;15.20
14851;BMP180;7517;48.400;11.770;2022-11-04T13:32:09;95582.00;;;15.20
14851;BMP180;7517;48.400;11.770;2022-11-04T13:34:50;95575.00;;;15.10
14851;BMP180;7517;48.400;11.770;2022-11-04T13:37:26;95573.00;;;15.20
14851;BMP180;7517;48.400;11.770;2022-11-04T13:40:01;95571.00;;;15.20
14851;BMP180;7517;48.400;11.770;2022-11-04T13:46:03;95582.00;;;15.20
14851;BMP180;7517;48.400;11.770;2022-11-04T13:48:34;95582.00;;;15.20
14851;BMP180;7517;48.400;11.770;2022-11-04T13:51:07;95585.00;;;15.20
14851;BMP180;7517;48.400;11.770;2022-11-04T13:53:44;95588.00;;;15.10
14851;BMP180;7517;48.400;11.770;2022-11-04T13:56:29;95584.00;;;15.10
14851;BMP180;7517;48.400;11.770;2022-11-04T13:59:02;95586.00;;;15.10
14851;BMP180;7517;48.400;11.770;2022-11-04T14:01:32;95587.00;;;15.10
14851;BMP180;7517;48.400;11.770;2022-11-04T14:04:18;95587.00;;;15.10
14851;BMP180;7517;48.400;11.770;2022-11-04T14:06:57;95587.00;;;15.10
14851;BMP180;7517;48.400;11.770;2022-11-04T14:09:57;95590.00;;;15.10
14851;BMP180;7517;48.400;11.770;2022-11-04T14:12:32;95586.00;;;15.10
14851;BMP180;7517;48.400;11.770;2022-11-04T14:15:12;95587.00;;;15.10
14851;BMP180;7517;48.400;11.770;2022-11-04T14:18:01;95580.00;;;15.10
14851;BMP180;7517;48.400;11.770;2022-11-04T14:20:32;95581.00;;;15.10
14851;BMP180;7517;48.400;11.770;2022-11-04T14:23:03;95578.00;;;15.10
14851;BMP180;7517;48.400;11.770;2022-11-04T14:25:37;95588.00;;;15.10
14851;BMP180;7517;48.400;11.770;2022-11-04T14:28:27;95590.00;;;15.00
14851;BMP180;7517;48.400;11.770;2022-11-04T14:31:04;95586.00;;;15.10
14851;BMP180;7517;48.400;11.770;2022-11-04T14:33:48;95590.00;;;15.10
14851;BMP180;7517;48.400;11.770;2022-11-04T14:36:34;95591.00;;;15.00
14851;BMP180;7517;48.400;11.770;2022-11-04T14:39:22;95598.00;;;15.00
14851;BMP180;7517;48.400;11.770;2022-11-04T14:41:57;95595.00;;;15.00
14851;BMP180;7517;48.400;11.770;2022-11-04T14:44:36;95596.00;;;15.00
14851;BMP180;7517;48.400;11.770;2022-11-04T14:47:17;95590.00;;;14.90
14851;BMP180;7517;48.400;11.770;2022-11-04T14:49:48;95599.00;;;14.90
14851;BMP180;7517;48.400;11.770;2022-11-04T14:52:23;95605.00;;;14.80
14851;BMP180;7517;48.400;11.770;2022-11-04T14:54:57;95613.00;;;14.80
14851;BMP180;7517;48.400;11.770;2022-11-04T14:57:35;95608.00;;;14.70